Time;durP1;ratioP1;P1;durP2;ratioP2;P2;SDS_P1;SDS_P2;PMS_P1;PMS_P2;Temp;Humidity;BMP_temperature;BMP_pressure;BME280_temperature;BME280_humidity;BME280_pressure;Samples;Min_cycle;Max_cycle;Signal;HPM_P1;HPM_P2
2023/12/23 00:02:17;;;;;;;0.70;0.70;;;;;;;5.70;84.58;98079.78;5071478;28;20196;-66
2023/12/23 00:04:44;;;;;;;0.60;0.60;;;;;;;5.71;84.58;98096.72;5071686;28;20725;-66
2023/12/23 00:07:12;;;;;;;0.60;0.60;;;;;;;5.72;85.18;98103.44;5071663;28;20203;-66
2023/12/23 00:09:39;;;;;;;0.77;0.77;;;;;;;5.70;86.03;98105.22;5068931;28;20703;-66
2023/12/23 00:12:07;;;;;;;0.57;0.57;;;;;;;5.65;86.07;98094.38;5073327;28;20254;-66
2023/12/23 00:14:34;;;;;;;0.73;0.63;;;;;;;5.65;86.25;98087.59;5072102;28;20200;-66
2023/12/23 00:17:00;;;;;;;0.70;0.70;;;;;;;5.66;86.17;98073.13;5071567;28;20635;-66
2023/12/23 00:19:28;;;;;;;0.60;0.60;;;;;;;5.68;85.03;98068.84;5072214;28;20200;-66
2023/12/23 00:21:55;;;;;;;1.70;0.80;;;;;;;5.66;85.43;98068.06;5071131;28;20229;-66
2023/12/23 00:24:24;;;;;;;0.50;0.50;;;;;;;5.70;85.55;98069.63;5070822;28;20192;-66
2023/12/23 00:26:50;;;;;;;0.50;0.50;;;;;;;5.72;86.31;98073.78;5071433;28;20270;-66
2023/12/23 00:29:17;;;;;;;0.60;0.60;;;;;;;5.70;86.30;98050.13;5074217;28;20218;-65
2023/12/23 00:31:44;;;;;;;0.70;0.70;;;;;;;5.69;85.54;98063.69;5070899;28;20261;-66
2023/12/23 00:34:10;;;;;;;1.00;0.90;;;;;;;5.69;86.03;98067.94;5073217;28;20200;-66
2023/12/23 00:36:38;;;;;;;0.63;0.63;;;;;;;5.64;85.31;98082.53;5070698;28;20218;-66
2023/12/23 00:39:05;;;;;;;0.60;0.60;;;;;;;5.63;85.64;98079.16;5071002;28;20226;-66
2023/12/23 00:41:32;;;;;;;0.60;0.60;;;;;;;5.68;86.04;98081.56;5070678;28;20622;-66
2023/12/23 00:43:59;;;;;;;0.90;0.90;;;;;;;5.65;86.20;98074.03;5070982;28;20208;-66
2023/12/23 00:46:28;;;;;;;1.13;1.13;;;;;;;5.64;86.37;98055.41;5070774;28;20196;-66
2023/12/23 00:48:57;;;;;;;0.60;0.60;;;;;;;5.64;86.39;98060.50;5073185;28;20204;-66
2023/12/23 00:51:24;;;;;;;0.60;0.60;;;;;;;5.63;86.30;98052.91;5070877;28;20347;-66
2023/12/23 00:53:52;;;;;;;0.60;0.60;;;;;;;5.61;87.54;98052.13;5069434;28;20207;-67
2023/12/23 00:56:20;;;;;;;0.53;0.53;;;;;;;5.40;87.22;97996.88;5069400;28;20197;-66
2023/12/23 00:58:46;;;;;;;0.93;0.93;;;;;;;5.54;86.92;98012.53;5073192;28;20747;-66
2023/12/23 01:01:13;;;;;;;0.70;0.70;;;;;;;5.60;87.69;98012.31;5070756;28;20192;-66
2023/12/23 01:03:40;;;;;;;0.60;0.60;;;;;;;5.61;87.52;98014.00;5070416;28;20245;-66
2023/12/23 01:06:07;;;;;;;0.60;0.60;;;;;;;5.62;88.18;98013.13;5067706;28;20204;-66
2023/12/23 01:08:33;;;;;;;0.60;0.60;;;;;;;5.62;87.97;97990.25;5071280;28;20283;-66
2023/12/23 01:11:01;;;;;;;0.67;0.67;;;;;;;5.63;87.32;97997.81;5071608;28;20274;-66
2023/12/23 01:13:28;;;;;;;0.70;0.70;;;;;;;5.64;87.03;98007.13;5070734;28;20703;-65
2023/12/23 01:15:55;;;;;;;0.90;0.90;;;;;;;5.64;87.17;98008.81;5070958;28;20200;-66
2023/12/23 01:18:22;;;;;;;0.70;0.70;;;;;;;5.65;87.55;98005.41;5070549;28;20200;-66
2023/12/23 01:20:49;;;;;;;0.67;0.67;;;;;;;5.65;87.29;98005.41;5070452;28;20192;-66
2023/12/23 01:23:15;;;;;;;0.50;0.50;;;;;;;5.64;87.40;97998.66;5070534;28;20199;-66
2023/12/23 01:25:42;;;;;;;0.63;0.63;;;;;;;5.64;87.50;98003.72;5071005;28;20258;-65
2023/12/23 01:28:10;;;;;;;0.50;0.50;;;;;;;5.62;87.67;98008.03;5069578;28;20239;-66
2023/12/23 01:30:37;;;;;;;0.60;0.60;;;;;;;5.53;87.75;97995.59;5070883;28;20216;-66
2023/12/23 01:33:04;;;;;;;0.60;0.60;;;;;;;5.60;87.43;98004.69;5070118;28;20234;-65
2023/12/23 01:35:31;;;;;;;1.10;1.10;;;;;;;5.60;87.31;98005.53;5071809;28;20211;-66
2023/12/23 01:37:57;;;;;;;2.87;0.83;;;;;;;5.57;87.39;98004.81;5070266;28;20258;-66
2023/12/23 01:40:24;;;;;;;1.17;0.70;;;;;;;5.57;87.21;97989.56;5066381;28;20242;-66
2023/12/23 01:42:51;;;;;;;0.70;0.70;;;;;;;5.52;87.22;97999.06;5070337;28;20622;-66
2023/12/23 01:45:19;;;;;;;0.60;0.60;;;;;;;5.53;87.46;97990.53;5070275;28;20254;-65
2023/12/23 01:47:49;;;;;;;0.90;0.90;;;;;;;5.50;87.92;98005.88;5073883;28;20192;-66
2023/12/23 01:50:18;;;;;;;0.80;0.80;;;;;;;5.47;87.90;97995.81;5075258;28;20273;-66
2023/12/23 01:52:46;;;;;;;0.83;0.83;;;;;;;5.45;88.45;98000.13;5076564;28;20219;-66
2023/12/23 01:55:13;;;;;;;0.63;0.63;;;;;;;5.45;88.68;97977.25;5074922;28;20733;-66
2023/12/23 01:57:40;;;;;;;0.77;0.77;;;;;;;5.36;88.39;97962.31;5074021;28;20200;-66
2023/12/23 02:00:08;;;;;;;0.70;0.70;;;;;;;5.43;88.92;97973.94;5074136;28;20192;-66
2023/12/23 02:02:38;;;;;;;0.60;0.60;;;;;;;5.37;88.75;97964.78;5073899;28;20275;-66
2023/12/23 02:05:06;;;;;;;0.50;0.50;;;;;;;5.45;88.78;97959.47;5074026;28;20200;-66
2023/12/23 02:07:33;;;;;;;0.70;0.70;;;;;;;5.46;88.43;97968.75;5073709;28;20283;-66
2023/12/23 02:09:59;;;;;;;0.67;0.67;;;;;;;5.43;88.11;97981.56;5075202;28;20200;-66
2023/12/23 02:12:35;;;;;;;0.50;0.50;;;;;;;5.42;87.94;97992.59;5073592;28;20192;-66
2023/12/23 02:15:06;;;;;;;0.50;0.50;;;;;;;5.45;87.90;97987.41;5073504;28;20196;-66
2023/12/23 02:17:32;;;;;;;1.53;1.53;;;;;;;5.43;88.15;97999.34;5073371;28;20196;-66
2023/12/23 02:20:01;;;;;;;0.80;0.80;;;;;;;5.38;87.36;98016.44;5073372;28;20238;-65
2023/12/23 02:22:29;;;;;;;1.23;1.23;;;;;;;5.38;87.62;97991.03;5073608;28;20668;-67
2023/12/23 02:24:55;;;;;;;0.53;0.53;;;;;;;5.29;88.00;97982.84;5074444;28;20204;-66
2023/12/23 02:27:31;;;;;;;0.50;0.50;;;;;;;5.28;88.62;97970.16;5074371;28;20646;-65
2023/12/23 02:29:59;;;;;;;0.60;0.60;;;;;;;5.09;88.97;97959.75;5074904;28;20203;-65
2023/12/23 02:32:26;;;;;;;0.60;0.60;;;;;;;5.12;89.92;97949.50;5072870;28;20215;-66
2023/12/23 02:34:54;;;;;;;0.53;0.53;;;;;;;5.13;90.20;97955.41;5073126;28;20199;-66
2023/12/23 02:37:20;;;;;;;0.60;0.60;;;;;;;5.17;90.00;97934.94;5073251;28;20254;-65
2023/12/23 02:39:49;;;;;;;0.60;0.60;;;;;;;5.19;90.42;97956.06;5073193;28;20684;-66
2023/12/23 02:42:15;;;;;;;0.50;0.50;;;;;;;5.17;90.67;97957.78;5073876;28;20196;-66
2023/12/23 02:44:42;;;;;;;0.80;0.80;;;;;;;5.11;91.23;97947.84;5072791;28;20261;-66
2023/12/23 02:47:09;;;;;;;0.80;0.80;;;;;;;5.13;91.43;97951.19;5075706;28;20257;-66
2023/12/23 02:49:35;;;;;;;1.57;1.57;;;;;;;5.18;91.72;97951.84;5072895;28;20196;-66
2023/12/23 02:52:02;;;;;;;1.17;0.63;;;;;;;5.16;91.49;97948.53;5071846;28;20281;-65
2023/12/23 02:54:29;;;;;;;0.60;0.60;;;;;;;5.19;91.93;97948.44;5073177;28;20265;-65
2023/12/23 02:56:57;;;;;;;0.60;0.60;;;;;;;5.17;92.46;97939.22;5073193;28;20241;-66
2023/12/23 02:59:23;;;;;;;0.60;0.60;;;;;;;5.18;92.63;97951.84;5073098;28;20196;-66
2023/12/23 03:01:50;;;;;;;1.33;1.33;;;;;;;5.17;92.48;97960.34;5072544;28;20276;-66
2023/12/23 03:04:17;;;;;;;1.03;0.80;;;;;;;5.19;93.20;97947.59;5072912;28;20242;-66
2023/12/23 03:06:44;;;;;;;0.53;0.53;;;;;;;5.13;93.33;97956.25;5073200;28;20200;-65
2023/12/23 03:09:10;;;;;;;0.60;0.60;;;;;;;5.12;93.25;97924.09;5072711;28;20200;-65
2023/12/23 03:11:37;;;;;;;0.60;0.60;;;;;;;5.14;93.29;97909.63;5072537;28;20307;-66
2023/12/23 03:14:08;;;;;;;0.70;0.70;;;;;;;5.05;93.69;97931.97;5072754;28;20751;-66
2023/12/23 03:16:35;;;;;;;0.60;0.60;;;;;;;4.96;93.89;97945.78;5072627;28;20204;-65
2023/12/23 03:19:02;;;;;;;0.70;0.70;;;;;;;4.90;94.07;97910.44;5072162;28;20192;-66
2023/12/23 03:21:29;;;;;;;0.70;0.70;;;;;;;4.74;94.62;97914.31;5073896;28;20277;-65
2023/12/23 03:23:56;;;;;;;0.90;0.90;;;;;;;4.75;94.90;97903.28;5072205;28;20196;-65
2023/12/23 03:26:22;;;;;;;0.57;0.57;;;;;;;4.76;95.08;97910.03;5072318;28;20215;-65
2023/12/23 03:28:49;;;;;;;1.17;1.17;;;;;;;4.58;95.90;97875.06;5073206;28;20724;-65
2023/12/23 03:31:18;;;;;;;1.83;1.30;;;;;;;4.60;96.65;97918.97;5072078;28;20208;-66
2023/12/23 03:33:44;;;;;;;0.60;0.60;;;;;;;4.65;96.44;97907.81;5072623;28;20204;-66
2023/12/23 03:36:11;;;;;;;0.60;0.60;;;;;;;4.68;96.74;97896.75;5071854;28;20196;-66
2023/12/23 03:38:38;;;;;;;0.70;0.70;;;;;;;4.66;96.57;97893.41;5072841;28;20249;-66
2023/12/23 03:41:05;;;;;;;0.83;0.83;;;;;;;4.62;96.42;97892.66;5071984;28;20207;-66
2023/12/23 03:43:31;;;;;;;0.90;0.90;;;;;;;4.65;96.81;97861.31;5072946;28;20207;-65
2023/12/23 03:45:59;;;;;;;0.70;0.70;;;;;;;4.54;97.17;97888.72;5071780;28;20203;-65
2023/12/23 03:48:27;;;;;;;1.67;1.57;;;;;;;4.61;96.84;97880.03;5071825;28;20618;-65
2023/12/23 03:50:54;;;;;;;0.97;0.97;;;;;;;4.61;96.55;97895.28;5073467;28;20301;-66
2023/12/23 03:53:21;;;;;;;0.67;0.67;;;;;;;4.65;96.74;97886.69;5071930;28;20200;-65
2023/12/23 03:55:48;;;;;;;0.60;0.60;;;;;;;4.62;96.93;97866.50;5071964;28;20196;-66
2023/12/23 03:58:15;;;;;;;0.70;0.70;;;;;;;4.61;96.55;97878.34;5072332;28;20202;-66
2023/12/23 04:00:41;;;;;;;0.80;0.80;;;;;;;4.51;96.93;97871.03;5071815;28;20557;-65
2023/12/23 04:03:08;;;;;;;2.97;0.80;;;;;;;4.67;96.73;97892.53;5073112;28;20200;-66
2023/12/23 04:05:36;;;;;;;0.63;0.63;;;;;;;4.69;97.39;97883.16;5071260;28;20253;-66
2023/12/23 04:08:03;;;;;;;1.53;1.53;;;;;;;4.73;97.29;97879.66;5071552;28;20204;-65
2023/12/23 04:10:30;;;;;;;0.60;0.60;;;;;;;4.73;97.33;97885.56;5071972;28;20196;-66
2023/12/23 04:12:56;;;;;;;0.50;0.50;;;;;;;4.74;97.59;97904.16;5071536;28;20236;-66
2023/12/23 04:15:23;;;;;;;0.50;0.50;;;;;;;4.74;97.70;97899.09;5071003;28;20199;-65
2023/12/23 04:17:50;;;;;;;0.63;0.63;;;;;;;4.73;97.78;97887.28;5072792;28;20664;-66
2023/12/23 04:20:16;;;;;;;0.50;0.50;;;;;;;4.77;97.55;97883.78;5074351;28;20665;-66
2023/12/23 04:22:47;;;;;;;1.07;1.07;;;;;;;4.80;97.36;97895.53;5071243;28;20253;-66
2023/12/23 04:25:14;;;;;;;1.10;1.10;;;;;;;4.76;97.78;97884.63;5074426;28;20198;-65
2023/12/23 04:27:41;;;;;;;1.33;1.23;;;;;;;4.74;97.57;97882.16;5071863;28;20200;-66
2023/12/23 04:30:08;;;;;;;0.60;0.60;;;;;;;4.74;97.64;97872.00;5071288;28;20249;-65
2023/12/23 04:32:35;;;;;;;0.60;0.60;;;;;;;4.66;97.34;97868.88;5070864;28;20287;-65
2023/12/23 04:35:03;;;;;;;1.20;1.20;;;;;;;4.62;97.15;97866.50;5074157;28;20200;-65
2023/12/23 04:37:29;;;;;;;0.70;0.70;;;;;;;4.66;97.22;97888.34;5070254;28;20245;-65
2023/12/23 04:39:57;;;;;;;0.70;0.70;;;;;;;4.62;97.29;97863.94;5072889;28;20208;-65
2023/12/23 04:42:24;;;;;;;0.60;0.60;;;;;;;4.64;97.68;97869.78;5070924;28;20192;-65
2023/12/23 04:44:51;;;;;;;1.23;1.23;;;;;;;4.64;97.53;97852.03;5069489;28;20203;-66
2023/12/23 04:47:18;;;;;;;1.17;1.17;;;;;;;4.61;97.45;97867.34;5070887;28;20277;-65
2023/12/23 04:49:44;;;;;;;0.90;0.90;;;;;;;4.61;97.84;97860.56;5070657;28;20200;-65
2023/12/23 04:52:11;;;;;;;0.90;0.90;;;;;;;4.60;98.02;97840.31;5069385;28;20282;-65
2023/12/23 04:54:38;;;;;;;1.27;1.27;;;;;;;4.58;97.92;97859.84;5074545;28;20199;-66
2023/12/23 04:57:06;;;;;;;1.57;1.57;;;;;;;4.47;97.79;97851.72;5071593;28;20580;-66
2023/12/23 04:59:32;;;;;;;1.83;1.83;;;;;;;4.51;97.78;97859.19;5075809;28;20261;-65
2023/12/23 05:01:59;;;;;;;8.30;2.13;;;;;;;4.34;97.78;97837.75;5069732;28;20192;-65
2023/12/23 05:04:26;;;;;;;1.10;1.10;;;;;;;4.41;97.26;97862.88;5070632;28;20649;-66
2023/12/23 05:06:53;;;;;;;2.07;1.97;;;;;;;4.44;97.57;97877.19;5070633;28;20200;-65
2023/12/23 05:09:19;;;;;;;0.80;0.80;;;;;;;4.44;97.68;97882.25;5071270;28;20250;-66
2023/12/23 05:11:46;;;;;;;0.60;0.60;;;;;;;4.48;97.47;97893.97;5073075;28;20216;-65
2023/12/23 05:14:14;;;;;;;0.90;0.90;;;;;;;4.54;97.12;97903.94;5067645;28;20692;-66
2023/12/23 05:16:41;;;;;;;1.23;1.23;;;;;;;4.54;97.39;97899.69;5069807;28;20200;-66
2023/12/23 05:19:08;;;;;;;1.10;1.10;;;;;;;4.51;97.29;97891.34;5070010;28;20257;-65
2023/12/23 05:21:35;;;;;;;1.80;1.70;;;;;;;4.59;97.17;97909.69;5070746;28;20636;-66
2023/12/23 05:24:01;;;;;;;0.53;0.53;;;;;;;4.40;97.26;97865.44;5070054;28;20229;-65
2023/12/23 05:26:28;;;;;;;0.90;0.90;;;;;;;4.62;97.12;97891.88;5070653;28;20257;-65
2023/12/23 05:28:54;;;;;;;0.60;0.60;;;;;;;4.62;96.75;97892.66;5070233;28;20663;-65
2023/12/23 05:31:22;;;;;;;1.50;1.50;;;;;;;4.62;96.95;97889.31;5070904;28;20265;-66
2023/12/23 05:33:51;;;;;;;0.87;0.87;;;;;;;4.66;97.37;97868.03;5070099;28;20204;-66
2023/12/23 05:36:18;;;;;;;1.13;1.13;;;;;;;4.63;97.16;97861.34;5070314;28;20333;-65
2023/12/23 05:38:45;;;;;;;1.57;1.57;;;;;;;4.55;97.19;97867.53;5070521;28;20199;-65
2023/12/23 05:41:12;;;;;;;2.13;2.13;;;;;;;4.50;97.83;97882.06;5072581;28;20188;-65
2023/12/23 05:43:39;;;;;;;2.80;2.80;;;;;;;4.49;97.47;97849.97;5071950;28;20200;-65
2023/12/23 05:46:06;;;;;;;1.00;1.00;;;;;;;4.46;97.55;97865.28;5070182;28;20204;-66
2023/12/23 05:48:34;;;;;;;1.13;1.13;;;;;;;4.33;97.35;97879.22;5070217;28;20250;-65
2023/12/23 05:51:01;;;;;;;1.23;1.23;;;;;;;4.09;98.38;97858.75;5070261;28;20695;-65
2023/12/23 05:53:28;;;;;;;0.80;0.80;;;;;;;4.15;98.03;97885.63;5069998;28;20200;-66
2023/12/23 05:55:54;;;;;;;1.87;1.87;;;;;;;4.15;98.35;97876.34;5070287;28;20237;-66
2023/12/23 05:58:21;;;;;;;0.80;0.80;;;;;;;4.16;98.59;97890.69;5069599;28;20261;-65
2023/12/23 06:00:49;;;;;;;0.70;0.70;;;;;;;4.19;98.61;97898.19;5069026;28;20664;-65
2023/12/23 06:03:15;;;;;;;1.30;1.30;;;;;;;4.17;98.74;97912.63;5073723;28;20734;-65
2023/12/23 06:05:43;;;;;;;1.37;1.37;;;;;;;4.17;98.56;97899.94;5069975;28;20265;-65
2023/12/23 06:08:10;;;;;;;0.70;0.70;;;;;;;4.19;98.63;97920.19;5070205;28;20699;-65
2023/12/23 06:10:38;;;;;;;0.80;0.80;;;;;;;4.14;98.01;97892.41;5072942;28;23206;-65
2023/12/23 06:13:05;;;;;;;1.23;1.23;;;;;;;4.14;98.57;97924.53;5067621;28;20216;-65
2023/12/23 06:15:32;;;;;;;1.10;1.10;;;;;;;4.00;98.42;97937.63;5069635;28;20627;-65
2023/12/23 06:17:58;;;;;;;1.20;1.20;;;;;;;4.02;99.26;97905.44;5069764;28;20204;-65
2023/12/23 06:20:25;;;;;;;0.70;0.70;;;;;;;4.02;99.40;97910.50;5067820;28;20245;-65
2023/12/23 06:22:53;;;;;;;8.60;8.30;;;;;;;3.88;100.00;97940.47;5070267;28;20204;-65
2023/12/23 06:25:20;;;;;;;4.40;4.03;;;;;;;3.87;100.00;97921.09;5069389;28;20210;-65
2023/12/23 06:27:47;;;;;;;0.70;0.70;;;;;;;3.91;99.88;97937.84;5068842;28;20208;-65
2023/12/23 06:30:14;;;;;;;0.90;0.90;;;;;;;3.96;100.00;97920.81;5069757;28;20257;-66
2023/12/23 06:32:41;;;;;;;0.70;0.70;;;;;;;4.04;99.66;97918.91;5071563;28;21564;-66
2023/12/23 06:35:09;;;;;;;0.60;0.60;;;;;;;4.07;99.62;97896.00;5072411;28;20249;-65
2023/12/23 06:37:35;;;;;;;1.47;1.40;;;;;;;4.04;99.65;97902.88;5068087;28;20261;-66
2023/12/23 06:40:04;;;;;;;0.80;0.80;;;;;;;4.06;99.13;97881.69;5064267;28;20557;-66
2023/12/23 06:42:31;;;;;;;2.50;2.30;;;;;;;4.10;99.23;97883.22;5073006;28;20242;-66
2023/12/23 06:44:57;;;;;;;1.73;1.47;;;;;;;4.14;99.28;97894.94;5071962;28;20203;-67
2023/12/23 06:47:24;;;;;;;2.50;2.30;;;;;;;4.17;98.65;97915.16;5071617;28;20258;-67
2023/12/23 06:49:51;;;;;;;1.53;1.53;;;;;;;4.23;99.25;97934.47;5070928;28;20265;-66
2023/12/23 06:52:18;;;;;;;0.90;0.90;;;;;;;4.14;99.19;97930.44;5070484;28;20294;-66
2023/12/23 06:54:44;;;;;;;1.17;1.17;;;;;;;4.17;99.01;97925.28;5067450;28;20326;-66
2023/12/23 06:57:12;;;;;;;0.97;0.97;;;;;;;4.13;99.65;97931.34;5071840;28;20200;-67
2023/12/23 06:59:39;;;;;;;0.70;0.70;;;;;;;4.12;100.00;97922.06;5072690;28;20204;-66
2023/12/23 07:02:06;;;;;;;1.17;1.17;;;;;;;4.08;100.00;97909.50;5071806;28;20195;-66
2023/12/23 07:04:33;;;;;;;0.70;0.70;;;;;;;4.12;100.00;97895.88;5070434;28;20601;-67
2023/12/23 07:06:59;;;;;;;2.63;2.50;;;;;;;4.14;100.00;97905.09;5074556;28;20204;-66
2023/12/23 07:09:26;;;;;;;1.27;1.27;;;;;;;4.17;100.00;97929.53;5071623;28;20203;-67
2023/12/23 07:11:53;;;;;;;0.93;0.93;;;;;;;4.20;100.00;97950.56;5070478;28;20695;-66
2023/12/23 07:14:21;;;;;;;0.67;0.67;;;;;;;4.28;100.00;97949.53;5075746;28;20200;-67
2023/12/23 07:16:47;;;;;;;0.80;0.80;;;;;;;4.36;100.00;97925.63;5075708;28;20212;-66
2023/12/23 07:19:14;;;;;;;4.23;3.97;;;;;;;4.39;100.00;97881.56;5070178;28;20196;-66
2023/12/23 07:21:43;;;;;;;4.37;4.10;;;;;;;4.43;100.00;97890.72;5072152;28;20585;-67
2023/12/23 07:24:09;;;;;;;3.83;3.53;;;;;;;4.52;100.00;97910.78;5069730;28;20200;-67
2023/12/23 07:26:36;;;;;;;1.33;1.33;;;;;;;4.55;100.00;97920.84;5071134;28;20262;-66
2023/12/23 07:29:03;;;;;;;0.73;0.73;;;;;;;4.62;100.00;97933.28;5069886;28;20273;-66
2023/12/23 07:31:32;;;;;;;0.67;0.67;;;;;;;4.75;100.00;97938.81;5076135;28;20195;-65
2023/12/23 07:33:58;;;;;;;2.70;1.17;;;;;;;4.85;100.00;97899.56;5073319;28;20207;-66
2023/12/23 07:36:25;;;;;;;1.73;1.73;;;;;;;4.92;100.00;97890.06;5071978;28;20204;-65
2023/12/23 07:38:52;;;;;;;1.73;1.63;;;;;;;4.95;100.00;97875.56;5071960;28;20259;-66
2023/12/23 07:41:18;;;;;;;1.20;1.20;;;;;;;4.95;100.00;97867.94;5070404;28;20203;-65
2023/12/23 07:43:44;;;;;;;0.90;0.90;;;;;;;5.10;100.00;97875.09;5070769;28;20200;-67
2023/12/23 07:46:12;;;;;;;0.83;0.83;;;;;;;5.14;100.00;97876.63;5072822;28;20203;-68
2023/12/23 07:48:40;;;;;;;0.80;0.80;;;;;;;5.25;100.00;97887.28;5070259;28;20257;-66
2023/12/23 07:51:07;;;;;;;0.73;0.73;;;;;;;5.33;100.00;97888.75;5067745;28;20232;-66
2023/12/23 07:53:34;;;;;;;0.60;0.60;;;;;;;5.41;100.00;97894.38;5073513;28;20642;-67
2023/12/23 07:56:01;;;;;;;0.97;0.97;;;;;;;5.42;100.00;97901.13;5071964;28;20203;-66
2023/12/23 07:58:28;;;;;;;6.60;0.80;;;;;;;5.56;99.28;97919.25;5071644;28;20251;-65
2023/12/23 08:00:55;;;;;;;0.80;0.80;;;;;;;5.64;99.88;97918.16;5074770;28;20207;-65
2023/12/23 08:03:22;;;;;;;0.87;0.87;;;;;;;5.71;100.00;97931.47;5073795;28;20496;-66
2023/12/23 08:05:50;;;;;;;0.90;0.90;;;;;;;5.73;100.00;97937.31;5069628;28;20204;-66
2023/12/23 08:08:17;;;;;;;0.60;0.60;;;;;;;5.73;100.00;97930.53;5067442;28;20745;-66
2023/12/23 08:10:45;;;;;;;1.33;1.23;;;;;;;5.79;100.00;97926.94;5066067;28;20490;-65
2023/12/23 08:13:17;;;;;;;2.92;2.13;;;;;;;5.87;100.00;97935.19;5065277;28;20861;-62
2023/12/23 08:15:44;;;;;;;4.27;1.50;;;;;;;6.04;99.46;97945.56;5069418;28;20676;-63
2023/12/23 08:18:11;;;;;;;6.53;1.37;;;;;;;6.21;97.83;97948.34;5072358;28;20249;-63
2023/12/23 08:20:38;;;;;;;1.60;1.50;;;;;;;6.38;96.50;97931.66;5068487;28;20214;-63
2023/12/23 08:23:07;;;;;;;1.33;1.33;;;;;;;6.46;96.55;97945.78;5068667;28;20730;-63
2023/12/23 08:25:33;;;;;;;1.03;1.03;;;;;;;6.51;96.22;97948.13;5068558;28;20671;-64
2023/12/23 08:28:00;;;;;;;1.13;1.13;;;;;;;6.58;96.89;97954.66;5069814;28;20246;-63
2023/12/23 08:30:27;;;;;;;2.47;1.73;;;;;;;6.79;96.62;97943.66;5070709;28;20265;-63
2023/12/23 08:32:55;;;;;;;1.83;1.47;;;;;;;6.78;96.87;97929.28;5071310;28;20696;-63
2023/12/23 08:35:22;;;;;;;3.83;2.50;;;;;;;7.07;96.09;97964.66;5068531;28;20451;-63
2023/12/23 08:37:49;;;;;;;1.43;1.33;;;;;;;7.23;93.56;97955.50;5068108;28;20196;-63
2023/12/23 08:40:17;;;;;;;0.87;0.87;;;;;;;7.36;87.61;97953.28;5067292;28;20200;-63
2023/12/23 08:42:44;;;;;;;1.90;1.80;;;;;;;7.58;86.43;97940.50;5066998;28;20200;-63
2023/12/23 08:45:11;;;;;;;4.87;3.80;;;;;;;7.70;86.23;97962.94;5065566;28;20196;-63
2023/12/23 08:47:38;;;;;;;7.37;1.90;;;;;;;7.80;84.98;97959.94;5069656;28;20250;-64
2023/12/23 08:50:06;;;;;;;1.07;1.07;;;;;;;7.86;85.30;97946.09;5070681;28;20230;-63
2023/12/23 08:52:32;;;;;;;1.57;1.47;;;;;;;7.93;85.54;97948.31;5071389;28;20232;-63
2023/12/23 08:54:59;;;;;;;4.23;1.37;;;;;;;8.07;85.81;97960.50;5069251;28;20208;-64
2023/12/23 08:57:27;;;;;;;1.83;1.57;;;;;;;8.15;85.07;97940.56;5070935;28;20200;-63
2023/12/23 08:59:54;;;;;;;2.93;1.17;;;;;;;8.37;86.02;97938.75;5070515;28;20196;-63
2023/12/23 09:02:21;;;;;;;1.77;1.77;;;;;;;8.50;86.09;97928.00;5070734;28;20200;-63
2023/12/23 09:04:47;;;;;;;2.63;2.20;;;;;;;8.60;85.83;97917.28;5070532;28;20204;-63
2023/12/23 09:07:15;;;;;;;2.27;1.40;;;;;;;8.74;87.05;97932.00;5070794;28;20200;-63
2023/12/23 09:09:41;;;;;;;1.53;1.43;;;;;;;8.88;86.60;97937.28;5070491;28;20204;-63
2023/12/23 09:12:09;;;;;;;1.07;1.07;;;;;;;8.98;86.63;97938.53;5070271;28;20663;-63
2023/12/23 09:14:38;;;;;;;2.40;2.30;;;;;;;9.04;85.91;97938.22;5071032;28;20261;-64
2023/12/23 09:17:05;;;;;;;1.60;1.50;;;;;;;9.27;85.01;97953.28;5071108;28;20223;-63
2023/12/23 09:19:32;;;;;;;2.00;1.90;;;;;;;9.39;84.69;97960.38;5071054;28;20196;-64
2023/12/23 09:21:59;;;;;;;4.40;3.57;;;;;;;9.60;84.88;97935.47;5072652;28;20208;-64
2023/12/23 09:24:26;;;;;;;2.37;2.20;;;;;;;9.82;84.60;97938.63;5069322;28;20194;-63
2023/12/23 09:26:53;;;;;;;4.20;2.17;;;;;;;9.93;85.69;97936.34;5070560;28;20569;-63
2023/12/23 09:29:19;;;;;;;2.37;2.10;;;;;;;10.11;85.76;97937.16;5069252;28;20312;-63
2023/12/23 09:31:47;;;;;;;0.90;0.90;;;;;;;10.33;86.24;97937.72;5071493;28;20614;-63
2023/12/23 09:34:14;;;;;;;0.80;0.80;;;;;;;10.84;84.30;97944.34;5070366;28;20208;-63
2023/12/23 09:36:41;;;;;;;2.73;0.70;;;;;;;11.25;81.15;97947.19;5074547;28;20264;-64
2023/12/23 09:39:07;;;;;;;0.40;0.40;;;;;;;11.65;80.45;97968.03;5070929;28;20277;-63
2023/12/23 09:41:34;;;;;;;0.50;0.50;;;;;;;12.18;75.35;97983.75;5076777;28;20264;-63
2023/12/23 09:44:01;;;;;;;0.60;0.60;;;;;;;12.46;73.39;97993.22;5070468;28;20192;-63
2023/12/23 09:46:28;;;;;;;1.00;1.00;;;;;;;12.59;76.02;98005.25;5070272;28;20200;-63
2023/12/23 09:48:56;;;;;;;0.73;0.73;;;;;;;12.71;74.28;98008.00;5074161;28;20263;-63
2023/12/23 09:51:26;;;;;;;0.93;0.93;;;;;;;12.91;74.06;98020.47;5070005;28;20281;-63
2023/12/23 09:53:57;;;;;;;1.37;0.50;;;;;;;13.22;72.83;98025.38;5070345;28;20224;-63
2023/12/23 09:56:26;;;;;;;0.50;0.50;;;;;;;13.44;72.40;98023.09;5070137;28;20193;-64
2023/12/23 09:58:52;;;;;;;0.50;0.50;;;;;;;13.48;71.72;98031.47;5066880;28;20202;-63
2023/12/23 10:01:19;;;;;;;1.23;0.60;;;;;;;13.49;69.87;98048.56;5071045;28;20192;-60
2023/12/23 10:03:47;;;;;;;0.50;0.50;;;;;;;13.40;70.13;98044.84;5070249;28;20199;-61
2023/12/23 10:06:16;;;;;;;0.63;0.63;;;;;;;13.45;70.46;98042.78;5070392;28;20211;-61
2023/12/23 10:08:42;;;;;;;0.50;0.50;;;;;;;13.55;69.96;98064.44;5073495;28;20198;-61
2023/12/23 10:11:09;;;;;;;1.30;0.97;;;;;;;13.49;71.45;98070.00;5074363;28;20205;-61
2023/12/23 10:13:37;;;;;;;0.53;0.53;;;;;;;13.35;72.19;98085.47;5073824;28;20219;-61
2023/12/23 10:16:04;;;;;;;2.90;0.70;;;;;;;13.29;74.64;98111.59;5074036;28;20196;-63
2023/12/23 10:18:31;;;;;;;0.80;0.80;;;;;;;13.18;76.23;98101.13;5076163;28;20253;-64
2023/12/23 10:20:58;;;;;;;0.57;0.57;;;;;;;13.03;76.49;98108.00;5073746;28;20200;-64
2023/12/23 10:23:29;;;;;;;0.50;0.50;;;;;;;12.90;78.22;98111.38;5074089;28;20285;-63
2023/12/23 10:25:55;;;;;;;0.90;0.90;;;;;;;12.96;80.24;98111.84;5073999;28;20204;-63
2023/12/23 10:28:25;;;;;;;0.80;0.80;;;;;;;12.97;78.18;98097.25;5073963;28;20257;-64
2023/12/23 10:30:55;;;;;;;0.50;0.50;;;;;;;12.90;77.69;98121.69;5074240;28;20208;-63
2023/12/23 10:33:23;;;;;;;0.90;0.90;;;;;;;12.80;78.17;98133.41;5073493;28;20702;-64
2023/12/23 10:35:50;;;;;;;0.60;0.60;;;;;;;12.86;78.68;98148.50;5073553;28;20200;-63
2023/12/23 10:38:17;;;;;;;0.50;0.50;;;;;;;12.82;80.14;98176.16;5073994;28;20634;-63
2023/12/23 10:40:51;;;;;;;0.70;0.70;;;;;;;12.61;81.34;98190.25;5073251;28;20203;-63
2023/12/23 10:43:19;;;;;;;0.70;0.70;;;;;;;12.37;83.71;98218.19;5073652;28;20670;-63
2023/12/23 10:45:48;;;;;;;0.73;0.73;;;;;;;12.13;83.93;98242.66;5073113;28;20660;-63
2023/12/23 10:48:17;;;;;;;0.50;0.50;;;;;;;11.96;84.74;98238.44;5070366;28;20203;-63
2023/12/23 10:50:46;;;;;;;0.40;0.40;;;;;;;11.87;84.60;98248.38;5073117;28;20196;-63
2023/12/23 10:53:15;;;;;;;0.80;0.80;;;;;;;11.78;85.11;98242.00;5073465;28;20688;-63
2023/12/23 10:55:42;;;;;;;0.50;0.50;;;;;;;11.70;85.97;98222.72;5075820;28;20271;-64
2023/12/23 10:58:15;;;;;;;0.53;0.53;;;;;;;11.69;84.23;98229.63;5073112;28;20696;-63
2023/12/23 11:00:42;;;;;;;0.57;0.50;;;;;;;11.56;85.13;98255.13;5072866;28;20200;-66
2023/12/23 11:03:09;;;;;;;0.60;0.60;;;;;;;11.43;85.76;98235.28;5073383;28;20193;-67
2023/12/23 11:05:39;;;;;;;0.50;0.50;;;;;;;11.31;86.49;98231.59;5073014;28;20227;-67
2023/12/23 11:08:09;;;;;;;0.67;0.67;;;;;;;11.17;87.82;98234.06;5073077;28;20640;-67
2023/12/23 11:10:37;;;;;;;0.40;0.40;;;;;;;11.05;87.88;98250.06;5072994;28;20261;-66
2023/12/23 11:13:06;;;;;;;0.50;0.50;;;;;;;10.94;88.53;98258.31;5072534;28;20654;-66
2023/12/23 11:15:38;;;;;;;1.17;1.17;;;;;;;10.92;89.27;98264.44;5073158;28;20196;-66
2023/12/23 11:18:05;;;;;;;0.60;0.60;;;;;;;10.87;88.56;98271.50;5070088;28;20195;-67
2023/12/23 11:20:50;;;;;;;0.70;0.70;;;;;;;10.82;88.43;98269.19;5074754;28;20196;-66
2023/12/23 11:23:33;;;;;;;0.67;0.67;;;;;;;10.92;89.48;98296.00;5071689;28;20192;-67
2023/12/23 11:26:00;;;;;;;0.50;0.50;;;;;;;11.02;88.66;98304.06;5072867;28;20688;-67
2023/12/23 11:28:28;;;;;;;0.50;0.50;;;;;;;11.07;86.15;98302.13;5073082;28;20630;-67
2023/12/23 11:30:57;;;;;;;0.50;0.50;;;;;;;11.07;86.71;98320.06;5072548;28;20749;-66
2023/12/23 11:33:27;;;;;;;0.53;0.53;;;;;;;10.99;87.12;98301.66;5072425;28;21164;-66
2023/12/23 11:35:56;;;;;;;0.63;0.60;;;;;;;10.90;86.61;98317.50;5072313;28;20676;-66
2023/12/23 11:38:23;;;;;;;0.50;0.50;;;;;;;10.92;86.90;98320.84;5072651;28;20200;-67
2023/12/23 11:40:50;;;;;;;0.50;0.50;;;;;;;10.89;85.87;98316.66;5072678;28;20253;-66